^^
Station Historical Data
Daily Summary for February 3, 2021 Units:  English    Metric   Both
Daily Weekly Monthly Yearly
  High: Low: Average:
Temperature: 28.8 °F 18.6 °F 22.6 °F
Dew Point: 22.7 °F 14.6 °F 17.6 °F
Humidity: 86% 74% 81%
Wind Speed: 5mph 0mph 2mph
Wind Gust: 10mph - -
Wind- - West
Pressure: 30.07 in 29.98 in -
Precipitation: 0.00 in    
 
 
Tabular Data for February 3, 2021
Time Temperature Dew Point Pressure Wind Wind Speed Wind Gust Humidity Rainfall Rate (Hourly) solar
00:00 23.8 °F 17.9 °F 30.05 in NNE 5 mph 5 mph 78% 0.00 in 0 W/m2
00:05 23.8 °F 17.9 °F 30.05 in NNW 5 mph 5 mph 78% 0.00 in 0 W/m2
00:10 23.6 °F 17.7 °F 30.05 in NNW 5 mph 5 mph 78% 0.00 in 0 W/m2
00:15 23.6 °F 17.7 °F 30.05 in NNW 5 mph 9 mph 78% 0.00 in 0 W/m2
00:20 23.5 °F 17.6 °F 30.05 in WNW 5 mph 5 mph 78% 0.00 in 0 W/m2
00:25 23.4 °F 17.8 °F 30.05 in North 5 mph 6 mph 79% 0.00 in 0 W/m2
00:30 23.3 °F 17.7 °F 30.05 in NE 4 mph 4 mph 79% 0.00 in 0 W/m2
00:35 23.3 °F 17.7 °F 30.05 in NNE 4 mph 5 mph 79% 0.00 in 0 W/m2
00:40 23.1 °F 17.6 °F 30.05 in NNW 4 mph 4 mph 79% 0.00 in 0 W/m2
00:45 23.1 °F 17.6 °F 30.05 in NW 4 mph 5 mph 79% 0.00 in 0 W/m2
00:50 23.1 °F 17.6 °F 30.05 in NNW 4 mph 4 mph 79% 0.00 in 0 W/m2
00:55 23 °F 17.5 °F 30.05 in NW 4 mph 4 mph 79% 0.00 in 0 W/m2
01:00 22.8 °F 17.6 °F 30.05 in North 4 mph 10 mph 80% 0.00 in 0 W/m2
01:05 22.8 °F 17.6 °F 30.05 in NNW 4 mph 10 mph 80% 0.00 in 0 W/m2
01:10 22.5 °F 17.3 °F 30.05 in WNW 4 mph 4 mph 80% 0.00 in 0 W/m2
01:15 22.3 °F 17.1 °F 30.05 in NNW 3 mph 4 mph 80% 0.00 in 0 W/m2
01:20 22.1 °F 16.9 °F 30.05 in NW 3 mph 3 mph 80% 0.00 in 0 W/m2
01:25 21.9 °F 17 °F 30.05 in NW 3 mph 3 mph 81% 0.00 in 0 W/m2
01:30 21.6 °F 16.7 °F 30.05 in North 3 mph 4 mph 81% 0.00 in 0 W/m2
01:35 21.5 °F 16.6 °F 30.05 in North 3 mph 4 mph 81% 0.00 in 0 W/m2
01:40 21.3 °F 16.7 °F 30.05 in NNW 3 mph 3 mph 82% 0.00 in 0 W/m2
01:45 21.4 °F 16.8 °F 30.05 in NNW 3 mph 3 mph 82% 0.00 in 0 W/m2
01:50 21.2 °F 16.6 °F 30.05 in NNW 2 mph 3 mph 82% 0.00 in 0 W/m2
01:55 21.1 °F 16.5 °F 30.04 in NW 3 mph 3 mph 82% 0.00 in 0 W/m2
02:00 20.9 °F 16.3 °F 30.05 in NW 2 mph 6 mph 82% 0.00 in 0 W/m2
02:05 20.8 °F 16.5 °F 30.05 in NW 2 mph 6 mph 83% 0.00 in 0 W/m2
02:10 20.6 °F 16.3 °F 30.05 in NNW 2 mph 4 mph 83% 0.00 in 0 W/m2
02:15 20.6 °F 16.3 °F 30.05 in NW 2 mph 4 mph 83% 0.00 in 0 W/m2
02:20 20.5 °F 16.2 °F 30.05 in NNW 2 mph 4 mph 83% 0.00 in 0 W/m2
02:25 20.4 °F 16.1 °F 30.05 in NNW 2 mph 4 mph 83% 0.00 in 0 W/m2
02:30 20.2 °F 15.9 °F 30.05 in WNW 1 mph 2 mph 83% 0.00 in 0 W/m2
02:35 20.2 °F 15.9 °F 30.05 in NW 1 mph 3 mph 83% 0.00 in 0 W/m2
02:40 20.2 °F 15.9 °F 30.05 in North 2 mph 2 mph 83% 0.00 in 0 W/m2
02:45 20.2 °F 15.9 °F 30.05 in NW 2 mph 2 mph 83% 0.00 in 0 W/m2
02:50 20.1 °F 15.8 °F 30.05 in NW 2 mph 2 mph 83% 0.00 in 0 W/m2
02:55 20.1 °F 15.8 °F 30.05 in NNW 2 mph 4 mph 83% 0.00 in 0 W/m2
03:00 20 °F 15.7 °F 30.05 in NNW 2 mph 2 mph 83% 0.00 in 0 W/m2
03:05 20 °F 15.7 °F 30.05 in NNW 2 mph 2 mph 83% 0.00 in 0 W/m2
03:10 20.1 °F 15.8 °F 30.05 in North 3 mph 3 mph 83% 0.00 in 0 W/m2
03:15 20 °F 15.7 °F 30.05 in NW 3 mph 3 mph 83% 0.00 in 0 W/m2
03:20 20 °F 15.7 °F 30.05 in NNW 3 mph 8 mph 83% 0.00 in 0 W/m2
03:25 20 °F 15.9 °F 30.05 in NNW 3 mph 8 mph 84% 0.00 in 0 W/m2
03:30 20.1 °F 16 °F 30.04 in NNW 3 mph 5 mph 84% 0.00 in 0 W/m2
03:35 20 °F 15.9 °F 30.05 in NNW 3 mph 5 mph 84% 0.00 in 0 W/m2
03:40 20 °F 15.9 °F 30.05 in NNW 2 mph 3 mph 84% 0.00 in 0 W/m2
03:45 20 °F 15.9 °F 30.05 in NNW 3 mph 3 mph 84% 0.00 in 0 W/m2
03:50 20.1 °F 16 °F 30.04 in North 3 mph 3 mph 84% 0.00 in 0 W/m2
03:55 20.2 °F 16.1 °F 30.04 in North 4 mph 4 mph 84% 0.00 in 0 W/m2
04:00 20.2 °F 16.1 °F 30.04 in NNW 4 mph 4 mph 84% 0.00 in 0 W/m2
04:05 20.4 °F 16.3 °F 30.04 in NW 4 mph 4 mph 84% 0.00 in 0 W/m2
04:10 20.4 °F 16.3 °F 30.04 in NNW 3 mph 3 mph 84% 0.00 in 0 W/m2
04:15 20.3 °F 16 °F 30.04 in NNW 2 mph 3 mph 83% 0.00 in 0 W/m2
04:20 20.2 °F 15.9 °F 30.04 in NNW 2 mph 2 mph 83% 0.00 in 0 W/m2
04:25 20.1 °F 15.8 °F 30.04 in NNW 2 mph 2 mph 83% 0.00 in 0 W/m2
04:30 20 °F 15.7 °F 30.03 in North 2 mph 2 mph 83% 0.00 in 0 W/m2
04:35 19.9 °F 15.6 °F 30.03 in NNW 2 mph 2 mph 83% 0.00 in 0 W/m2
04:40 19.9 °F 15.6 °F 30.04 in NW 3 mph 4 mph 83% 0.00 in 0 W/m2
04:45 19.9 °F 15.6 °F 30.04 in NW 2 mph 4 mph 83% 0.00 in 0 W/m2
04:50 19.9 °F 15.8 °F 30.04 in NNW 3 mph 4 mph 84% 0.00 in 0 W/m2
04:55 20 °F 15.9 °F 30.04 in NW 3 mph 4 mph 84% 0.00 in 0 W/m2
05:00 20.2 °F 16.1 °F 30.04 in NNW 4 mph 4 mph 84% 0.00 in 0 W/m2
05:05 20.2 °F 16.1 °F 30.04 in NNW 4 mph 4 mph 84% 0.00 in 0 W/m2
05:10 20.2 °F 16.1 °F 30.04 in NNW 3 mph 4 mph 84% 0.00 in 0 W/m2
05:15 20.2 °F 15.9 °F 30.04 in NW 3 mph 4 mph 83% 0.00 in 0 W/m2
05:20 20.2 °F 15.9 °F 30.04 in NNW 3 mph 3 mph 83% 0.00 in 0 W/m2
05:25 20.2 °F 15.9 °F 30.04 in NW 3 mph 3 mph 83% 0.00 in 0 W/m2
05:30 20.2 °F 15.9 °F 30.04 in NNW 3 mph 3 mph 83% 0.00 in 0 W/m2
05:35 20.1 °F 15.8 °F 30.04 in NW 3 mph 3 mph 83% 0.00 in 0 W/m2
05:40 20 °F 15.7 °F 30.04 in NW 2 mph 2 mph 83% 0.00 in 0 W/m2
05:45 19.9 °F 15.6 °F 30.04 in North 2 mph 2 mph 83% 0.00 in 0 W/m2
05:50 19.8 °F 15.5 °F 30.04 in North 2 mph 2 mph 83% 0.00 in 0 W/m2
05:55 19.7 °F 15.4 °F 30.04 in NW 2 mph 2 mph 83% 0.00 in 0 W/m2
06:00 19.5 °F 15.2 °F 30.04 in NNW 2 mph 2 mph 83% 0.00 in 0 W/m2
06:05 19.4 °F 15.1 °F 30.04 in NNW 2 mph 2 mph 83% 0.00 in 0 W/m2
06:10 19.2 °F 14.9 °F 30.04 in NNW 2 mph 2 mph 83% 0.00 in 0 W/m2
06:15 19.2 °F 14.9 °F 30.04 in NW 2 mph 2 mph 83% 0.00 in 0 W/m2
06:20 19.1 °F 14.8 °F 30.04 in NNW 2 mph 2 mph 83% 0.00 in 0 W/m2
06:25 19 °F 14.7 °F 30.04 in NW 2 mph 2 mph 83% 0.00 in 0 W/m2
06:30 19 °F 14.7 °F 30.04 in NNW 2 mph 3 mph 83% 0.00 in 0 W/m2
06:35 18.9 °F 14.6 °F 30.04 in NNW 2 mph 4 mph 83% 0.00 in 0 W/m2
06:40 18.9 °F 14.6 °F 30.04 in NNW 3 mph 3 mph 83% 0.00 in 0 W/m2
06:45 18.9 °F 14.9 °F 30.05 in NW 2 mph 3 mph 84% 0.00 in 0 W/m2
06:50 18.8 °F 14.8 °F 30.04 in NNW 2 mph 2 mph 84% 0.00 in 0 W/m2
06:55 18.8 °F 14.8 °F 30.05 in NNW 2 mph 2 mph 84% 0.00 in 0 W/m2
07:00 18.7 °F 14.7 °F 30.05 in NNW 1 mph 3 mph 84% 0.00 in 0 W/m2
07:05 18.7 °F 14.7 °F 30.05 in NNW 1 mph 3 mph 84% 0.00 in 0 W/m2
07:10 18.6 °F 14.6 °F 30.05 in NNW 2 mph 2 mph 84% 0.00 in 0 W/m2
07:15 18.6 °F 14.6 °F 30.05 in NW 2 mph 2 mph 84% 0.00 in 0 W/m2
07:20 18.7 °F 14.7 °F 30.05 in NW 1 mph 2 mph 84% 0.00 in 0 W/m2
07:25 18.8 °F 15 °F 30.06 in NNW 1 mph 2 mph 85% 0.00 in 0 W/m2
07:30 19 °F 15.2 °F 30.05 in WNW 2 mph 2 mph 85% 0.00 in 0 W/m2
07:35 19.1 °F 15.3 °F 30.06 in WNW 1 mph 2 mph 85% 0.00 in 0 W/m2
07:40 19.2 °F 15.7 °F 30.05 in NNW 1 mph 1 mph 86% 0.00 in 0 W/m2
07:45 19.4 °F 15.9 °F 30.06 in NW 1 mph 1 mph 86% 0.00 in 0 W/m2
07:50 19.7 °F 16.2 °F 30.06 in NW 2 mph 2 mph 86% 0.00 in 5 W/m2
07:55 19.8 °F 16.3 °F 30.06 in NW 2 mph 2 mph 86% 0.00 in 9 W/m2
08:00 20 °F 16.5 °F 30.06 in WNW 2 mph 3 mph 86% 0.00 in 11 W/m2
08:05 20.1 °F 16.6 °F 30.06 in NW 2 mph 5 mph 86% 0.00 in 14 W/m2
08:10 20.2 °F 16.7 °F 30.06 in NNW 2 mph 2 mph 86% 0.00 in 18 W/m2
08:15 20.3 °F 16.8 °F 30.06 in WNW 2 mph 2 mph 86% 0.00 in 21 W/m2
08:20 20.4 °F 16.9 °F 30.06 in NNW 2 mph 2 mph 86% 0.00 in 26 W/m2
08:25 20.3 °F 16.8 °F 30.06 in WNW 3 mph 3 mph 86% 0.00 in 33 W/m2
08:30 20.3 °F 16.5 °F 30.07 in NW 3 mph 3 mph 85% 0.00 in 39 W/m2
08:35 20.4 °F 16.6 °F 30.06 in NW 2 mph 3 mph 85% 0.00 in 30 W/m2
08:40 20.4 °F 16.6 °F 30.07 in WNW 2 mph 2 mph 85% 0.00 in 35 W/m2
08:45 20.4 °F 16.6 °F 30.07 in WNW 2 mph 2 mph 85% 0.00 in 44 W/m2
08:50 20.3 °F 16.5 °F 30.07 in NNW 2 mph 2 mph 85% 0.00 in 51 W/m2
08:55 20.4 °F 16.3 °F 30.07 in NW 2 mph 3 mph 84% 0.00 in 49 W/m2
09:00 20.6 °F 16.8 °F 30.07 in WNW 2 mph 3 mph 85% 0.00 in 35 W/m2
09:05 20.8 °F 16.7 °F 30.07 in NW 2 mph 3 mph 84% 0.00 in 49 W/m2
09:10 21.1 °F 17 °F 30.06 in NNW 2 mph 5 mph 84% 0.00 in 67 W/m2
09:15 21.2 °F 16.8 °F 30.06 in NW 3 mph 5 mph 83% 0.00 in 69 W/m2
09:20 21.5 °F 17.1 °F 30.07 in NW 3 mph 3 mph 83% 0.00 in 176 W/m2
09:25 22 °F 17.6 °F 30.07 in NW 2 mph 3 mph 83% 0.00 in 137 W/m2
09:30 22.3 °F 17.6 °F 30.07 in WNW 2 mph 3 mph 82% 0.00 in 125 W/m2
09:35 22.3 °F 17.4 °F 30.07 in NNW 3 mph 5 mph 81% 0.00 in 160 W/m2
09:40 22.6 °F 17.9 °F 30.06 in WNW 4 mph 4 mph 82% 0.00 in 148 W/m2
09:45 22.8 °F 17.8 °F 30.06 in NW 3 mph 4 mph 81% 0.00 in 100 W/m2
09:50 22.8 °F 17.6 °F 30.06 in NNW 3 mph 3 mph 80% 0.00 in 160 W/m2
09:55 23.2 °F 18.2 °F 30.06 in NW 3 mph 5 mph 81% 0.00 in 121 W/m2
10:00 23.2 °F 17.9 °F 30.06 in NNW 3 mph 3 mph 80% 0.00 in 234 W/m2
10:05 23.5 °F 18.2 °F 30.05 in NW 3 mph 3 mph 80% 0.00 in 88 W/m2
10:10 23.5 °F 18.2 °F 30.05 in NW 3 mph 3 mph 80% 0.00 in 83 W/m2
10:15 23.4 °F 18.1 °F 30.05 in NW 3 mph 3 mph 80% 0.00 in 297 W/m2
10:20 23.1 °F 17.8 °F 30.05 in NW 3 mph 3 mph 80% 0.00 in 109 W/m2
10:25 23.4 °F 18.1 °F 30.06 in NW 3 mph 3 mph 80% 0.00 in 288 W/m2
10:30 23.4 °F 18.1 °F 30.06 in NW 2 mph 6 mph 80% 0.00 in 102 W/m2
10:35 23.4 °F 18.4 °F 30.06 in North 2 mph 6 mph 81% 0.00 in 118 W/m2
10:40 23.5 °F 18.2 °F 30.06 in WNW 3 mph 3 mph 80% 0.00 in 251 W/m2
10:45 23.5 °F 18.2 °F 30.06 in NW 3 mph 3 mph 80% 0.00 in 225 W/m2
10:50 24.1 °F 18.5 °F 30.06 in NNW 2 mph 3 mph 79% 0.00 in 167 W/m2
10:55 24 °F 18.7 °F 30.06 in NNW 2 mph 3 mph 80% 0.00 in 51 W/m2
11:00 24.3 °F 18.4 °F 30.06 in NW 2 mph 2 mph 78% 0.00 in 271 W/m2
11:05 24.3 °F 18.4 °F 30.06 in WNW 2 mph 2 mph 78% 0.00 in 248 W/m2
11:10 24.3 °F 18.7 °F 30.06 in West 2 mph 2 mph 79% 0.00 in 234 W/m2
11:15 24.2 °F 18.9 °F 30.06 in West 2 mph 2 mph 80% 0.00 in 274 W/m2
11:20 24.1 °F 18.8 °F 30.06 in WNW 2 mph 3 mph 80% 0.00 in 359 W/m2
11:25 24.5 °F 18.9 °F 30.06 in NNW 2 mph 3 mph 79% 0.00 in 311 W/m2
11:30 25.1 °F 19.2 °F 30.06 in NW 2 mph 3 mph 78% 0.00 in 392 W/m2
11:35 25.2 °F 18.7 °F 30.06 in WNW 2 mph 3 mph 76% 0.00 in 301 W/m2
11:40 24.8 °F 18.6 °F 30.06 in West 3 mph 3 mph 77% 0.00 in 362 W/m2
11:45 24.8 °F 18.9 °F 30.06 in West 2 mph 3 mph 78% 0.00 in 446 W/m2
11:50 24.9 °F 19.6 °F 30.06 in WNW 2 mph 2 mph 80% 0.00 in 445 W/m2
11:55 25 °F 19.1 °F 30.06 in WSW 2 mph 2 mph 78% 0.00 in 446 W/m2
12:00 25.1 °F 19.5 °F 30.06 in NW 2 mph 3 mph 79% 0.00 in 506 W/m2
12:05 25.9 °F 19.4 °F 30.05 in West 2 mph 3 mph 76% 0.00 in 519 W/m2
12:10 25.2 °F 19.6 °F 30.05 in WSW 2 mph 2 mph 79% 0.00 in 522 W/m2
12:15 25.8 °F 19.9 °F 30.05 in NW 2 mph 2 mph 78% 0.00 in 526 W/m2
12:20 25.6 °F 20 °F 30.04 in West 2 mph 2 mph 79% 0.00 in 527 W/m2
12:25 26 °F 20.4 °F 30.04 in West 2 mph 2 mph 79% 0.00 in 531 W/m2
12:30 25.7 °F 19.8 °F 30.04 in SW 1 mph 3 mph 78% 0.00 in 536 W/m2
12:35 25.3 °F 19.7 °F 30.04 in SW 3 mph 3 mph 79% 0.00 in 536 W/m2
12:40 25.5 °F 19.9 °F 30.04 in SW 3 mph 3 mph 79% 0.00 in 538 W/m2
12:45 25.5 °F 20.2 °F 30.04 in SSW 3 mph 5 mph 80% 0.00 in 538 W/m2
12:50 25.7 °F 20.1 °F 30.04 in SW 3 mph 4 mph 79% 0.00 in 538 W/m2
12:55 25.7 °F 20.1 °F 30.03 in SW 3 mph 4 mph 79% 0.00 in 536 W/m2
13:00 26.1 °F 20.5 °F 30.03 in SW 3 mph 3 mph 79% 0.00 in 536 W/m2
13:05 26.6 °F 21 °F 30.03 in SW 3 mph 3 mph 79% 0.00 in 536 W/m2
13:10 26.7 °F 21.1 °F 30.03 in WSW 3 mph 3 mph 79% 0.00 in 536 W/m2
13:15 26.8 °F 21.2 °F 30.03 in WSW 3 mph 3 mph 79% 0.00 in 533 W/m2
13:20 26.5 °F 20.9 °F 30.03 in SSW 3 mph 4 mph 79% 0.00 in 533 W/m2
13:25 26.7 °F 21.1 °F 30.03 in SW 3 mph 4 mph 79% 0.00 in 531 W/m2
13:30 26.4 °F 20.5 °F 30.03 in SSW 3 mph 5 mph 78% 0.00 in 515 W/m2
13:35 26.3 °F 20.4 °F 30.03 in SW 4 mph 5 mph 78% 0.00 in 366 W/m2
13:40 26.5 °F 20.9 °F 30.03 in SSW 4 mph 4 mph 79% 0.00 in 369 W/m2
13:45 26.6 °F 21 °F 30.03 in SW 4 mph 4 mph 79% 0.00 in 459 W/m2
13:50 26.5 °F 20.6 °F 30.03 in SW 4 mph 4 mph 78% 0.00 in 448 W/m2
13:55 26.3 °F 20.4 °F 30.03 in SW 4 mph 6 mph 78% 0.00 in 369 W/m2
14:00 26.3 °F 20.4 °F 30.03 in SW 4 mph 5 mph 78% 0.00 in 494 W/m2
14:05 26.8 °F 21.2 °F 30.03 in SSW 4 mph 5 mph 79% 0.00 in 499 W/m2
14:10 26.8 °F 21.2 °F 30.02 in SW 4 mph 4 mph 79% 0.00 in 496 W/m2
14:15 26.8 °F 21.2 °F 30.02 in SW 3 mph 4 mph 79% 0.00 in 431 W/m2
14:20 26.6 °F 21 °F 30.02 in SSW 4 mph 4 mph 79% 0.00 in 422 W/m2
14:25 26.8 °F 21.2 °F 30.03 in West 3 mph 4 mph 79% 0.00 in 330 W/m2
14:30 26.9 °F 21 °F 30.02 in SW 3 mph 3 mph 78% 0.00 in 329 W/m2
14:35 27 °F 21.1 °F 30.02 in WSW 3 mph 3 mph 78% 0.00 in 369 W/m2
14:40 27.2 °F 20.9 °F 30.03 in SW 3 mph 3 mph 77% 0.00 in 445 W/m2
14:45 27.2 °F 20.9 °F 30.02 in SW 3 mph 3 mph 77% 0.00 in 352 W/m2
14:50 27.5 °F 20.9 °F 30.02 in SW 3 mph 3 mph 76% 0.00 in 362 W/m2
14:55 27.2 °F 20.9 °F 30.02 in SW 3 mph 3 mph 77% 0.00 in 350 W/m2
15:00 27.8 °F 21.5 °F 30.02 in SW 3 mph 3 mph 77% 0.00 in 420 W/m2
15:05 28.1 °F 21.8 °F 30.02 in SW 3 mph 3 mph 77% 0.00 in 411 W/m2
15:10 27.9 °F 21.6 °F 30.02 in WSW 3 mph 3 mph 77% 0.00 in 374 W/m2
15:15 27.7 °F 21.4 °F 30.02 in SSW 3 mph 3 mph 77% 0.00 in 330 W/m2
15:20 27.8 °F 21.5 °F 30.02 in SSW 2 mph 3 mph 77% 0.00 in 251 W/m2
15:25 27.9 °F 21.6 °F 30.02 in SSW 1 mph 3 mph 77% 0.00 in 302 W/m2
15:30 28.2 °F 21.9 °F 30.02 in SW 2 mph 4 mph 77% 0.00 in 278 W/m2
15:35 28.2 °F 21.9 °F 30.02 in SSW 3 mph 4 mph 77% 0.00 in 236 W/m2
15:40 28.2 °F 21.3 °F 30.02 in SSW 3 mph 4 mph 75% 0.00 in 260 W/m2
15:45 28.8 °F 21.6 °F 30.02 in SW 3 mph 4 mph 74% 0.00 in 271 W/m2
15:50 28.7 °F 22.7 °F 30.03 in WSW 3 mph 3 mph 78% 0.00 in 209 W/m2
15:55 28.5 °F 22.2 °F 30.03 in WSW 3 mph 3 mph 77% 0.00 in 158 W/m2
16:00 28.3 °F 22.3 °F 30.03 in WSW 3 mph 3 mph 78% 0.00 in 202 W/m2
16:05 28.2 °F 22.5 °F 30.03 in SSW 2 mph 3 mph 79% 0.00 in 218 W/m2
16:10 28.2 °F 22.5 °F 30.03 in SW 2 mph 3 mph 79% 0.00 in 251 W/m2
16:15 28 °F 22.6 °F 30.02 in SW 2 mph 3 mph 80% 0.00 in 250 W/m2
16:20 27.8 °F 22.4 °F 30.02 in WSW 2 mph 2 mph 80% 0.00 in 225 W/m2
16:25 27.6 °F 22.2 °F 30.02 in SSW 1 mph 2 mph 80% 0.00 in 223 W/m2
16:30 27.2 °F 22.1 °F 30.02 in SSW 2 mph 2 mph 81% 0.00 in 181 W/m2
16:35 27.2 °F 21.5 °F 30.02 in SSW 2 mph 2 mph 79% 0.00 in 146 W/m2
16:40 27.2 °F 21.5 °F 30.02 in SSW 3 mph 3 mph 79% 0.00 in 181 W/m2
16:45 27 °F 21.4 °F 30.02 in South 2 mph 3 mph 79% 0.00 in 169 W/m2
16:50 26.4 °F 21.1 °F 30.02 in South 1 mph 1 mph 80% 0.00 in 148 W/m2
16:55 26.4 °F 21.1 °F 30.01 in South 1 mph 1 mph 80% 0.00 in 93 W/m2
17:00 26.2 °F 20.6 °F 30.01 in South 1 mph 2 mph 79% 0.00 in 81 W/m2
17:05 26.1 °F 20.5 °F 30.02 in SSE 1 mph 2 mph 79% 0.00 in 62 W/m2
17:10 26.2 °F 20.6 °F 30.02 in South 1 mph 1 mph 79% 0.00 in 54 W/m2
17:15 26 °F 20.1 °F 30.02 in SSW 1 mph 1 mph 78% 0.00 in 32 W/m2
17:20 25.6 °F 19.7 °F 30.02 in SSW 1 mph 1 mph 78% 0.00 in 25 W/m2
17:25 25.4 °F 19.8 °F 30.02 in SSE 1 mph 1 mph 79% 0.00 in 26 W/m2
17:30 25.1 °F 19.5 °F 30.02 in South 1 mph 1 mph 79% 0.00 in 21 W/m2
17:35 24.8 °F 19.2 °F 30.02 in South 1 mph 1 mph 79% 0.00 in 12 W/m2
17:40 24.8 °F 19.5 °F 30.02 in South 1 mph 2 mph 80% 0.00 in 9 W/m2
17:45 24.9 °F 19.3 °F 30.02 in South 1 mph 2 mph 79% 0.00 in 7 W/m2
17:50 25 °F 19.1 °F 30.02 in South 2 mph 2 mph 78% 0.00 in 5 W/m2
17:55 25.4 °F 19.2 °F 30.02 in South 2 mph 3 mph 77% 0.00 in 0 W/m2
18:00 25.5 °F 19 °F 30.02 in South 2 mph 2 mph 76% 0.00 in 0 W/m2
18:05 25.6 °F 18.8 °F 30.02 in SSW 2 mph 2 mph 75% 0.00 in 0 W/m2
18:10 25.6 °F 18.8 °F 30.02 in SSW 2 mph 2 mph 75% 0.00 in 0 W/m2
18:15 25 °F 18.5 °F 30.02 in South 2 mph 2 mph 76% 0.00 in 0 W/m2
18:20 24.2 °F 18.3 °F 30.02 in South 2 mph 2 mph 78% 0.00 in 0 W/m2
18:25 24.2 °F 18.6 °F 30.03 in South 2 mph 2 mph 79% 0.00 in 0 W/m2
18:30 24.1 °F 18.5 °F 30.03 in SSE 2 mph 2 mph 79% 0.00 in 0 W/m2
18:35 24.1 °F 18.5 °F 30.02 in SSE 2 mph 2 mph 79% 0.00 in 0 W/m2
18:40 23.6 °F 18.3 °F 30.03 in South 1 mph 1 mph 80% 0.00 in 0 W/m2
18:45 23.5 °F 18.2 °F 30.03 in Calm   1 mph 80% 0.00 in 0 W/m2
18:50 23.3 °F 18.3 °F 30.03 in Calm     81% 0.00 in 0 W/m2
18:55 23 °F 18 °F 30.02 in Calm     81% 0.00 in 0 W/m2
19:00 22.8 °F 18.1 °F 30.03 in Calm     82% 0.00 in 0 W/m2
19:05 22.7 °F 18 °F 30.02 in Calm     82% 0.00 in 0 W/m2
19:10 22.5 °F 18.1 °F 30.02 in Calm   1 mph 83% 0.00 in 0 W/m2
19:15 22.5 °F 18.1 °F 30.02 in Calm   1 mph 83% 0.00 in 0 W/m2
19:20 22.4 °F 18 °F 30.02 in Calm   1 mph 83% 0.00 in 0 W/m2
19:25 22.2 °F 18.1 °F 30.02 in Calm   1 mph 84% 0.00 in 0 W/m2
19:30 22.1 °F 18 °F 30.02 in Calm     84% 0.00 in 0 W/m2
19:35 21.9 °F 17.8 °F 30.02 in Calm     84% 0.00 in 0 W/m2
19:40 21.4 °F 17.6 °F 30.02 in Calm   1 mph 85% 0.00 in 0 W/m2
19:45 21 °F 17.2 °F 30.02 in Calm   1 mph 85% 0.00 in 0 W/m2
19:50 21 °F 17.2 °F 30.02 in Calm     85% 0.00 in 0 W/m2
19:55 21 °F 17.2 °F 30.02 in Calm     85% 0.00 in 0 W/m2
20:00 21.1 °F 17.3 °F 30.02 in Calm   1 mph 85% 0.00 in 0 W/m2
20:05 21.2 °F 17.1 °F 30.01 in Calm   1 mph 84% 0.00 in 0 W/m2
20:10 21 °F 16.9 °F 30.01 in Calm     84% 0.00 in 0 W/m2
20:15 20.9 °F 16.5 °F 30.01 in Calm     83% 0.00 in 0 W/m2
20:20 20.7 °F 16.4 °F 30.01 in Calm     83% 0.00 in 0 W/m2
20:25 20.4 °F 16.3 °F 30.01 in Calm     84% 0.00 in 0 W/m2
20:30 20.6 °F 16.5 °F 30.01 in Calm   1 mph 84% 0.00 in 0 W/m2
20:35 20.8 °F 16.5 °F 30.01 in Calm   1 mph 83% 0.00 in 0 W/m2
20:40 20.8 °F 16.2 °F 30.01 in Calm   1 mph 82% 0.00 in 0 W/m2
20:45 20.6 °F 16 °F 30.01 in Calm   1 mph 82% 0.00 in 0 W/m2
20:50 20.8 °F 16.2 °F 30.01 in Calm     82% 0.00 in 0 W/m2
20:55 20.7 °F 16.1 °F 30.01 in Calm     82% 0.00 in 0 W/m2
21:00 20.7 °F 16.4 °F 30.01 in Calm     83% 0.00 in 0 W/m2
21:05 20.6 °F 16 °F 30.01 in Calm     82% 0.00 in 0 W/m2
21:10 20.4 °F 15.8 °F 30.00 in Calm     82% 0.00 in 0 W/m2
21:15 20.2 °F 15.9 °F 30.01 in Calm     83% 0.00 in 0 W/m2
21:20 20.6 °F 16.3 °F 30.00 in SSE 1 mph 1 mph 83% 0.00 in 0 W/m2
21:25 20.4 °F 15.8 °F 30.00 in Calm   1 mph 82% 0.00 in 0 W/m2
21:30 20.5 °F 16.2 °F 30.00 in Calm     83% 0.00 in 0 W/m2
21:35 20.1 °F 15.2 °F 30.00 in Calm   1 mph 81% 0.00 in 0 W/m2
21:40 20.1 °F 15.5 °F 30.00 in Calm     82% 0.00 in 0 W/m2
21:45 20 °F 15.7 °F 30.00 in Calm     83% 0.00 in 0 W/m2
21:50 20.5 °F 16.2 °F 30.00 in Calm   1 mph 83% 0.00 in 0 W/m2
21:55 20.7 °F 16.1 °F 29.99 in Calm   1 mph 82% 0.00 in 0 W/m2
22:00 20.8 °F 16.2 °F 29.99 in Calm     82% 0.00 in 0 W/m2
22:05 20.8 °F 15.9 °F 29.99 in Calm     81% 0.00 in 0 W/m2
22:10 20.9 °F 16 °F 29.99 in Calm   1 mph 81% 0.00 in 0 W/m2
22:15 21 °F 16.1 °F 29.99 in Calm   1 mph 81% 0.00 in 0 W/m2
22:20 20.6 °F 15.7 °F 29.99 in Calm     81% 0.00 in 0 W/m2
22:25 20.1 °F 15.2 °F 29.98 in Calm     81% 0.00 in 0 W/m2
22:30 20.2 °F 15.3 °F 29.98 in SSE 1 mph 1 mph 81% 0.00 in 0 W/m2
22:35 20.1 °F 15.2 °F 29.98 in Calm   1 mph 81% 0.00 in 0 W/m2
22:40 20.1 °F 15.2 °F 29.98 in Calm     81% 0.00 in 0 W/m2
22:45 19.9 °F 15 °F 29.98 in Calm   1 mph 81% 0.00 in 0 W/m2
22:50 19.6 °F 15 °F 29.98 in Calm   1 mph 82% 0.00 in 0 W/m2
22:55 19.5 °F 14.9 °F 29.98 in Calm   1 mph 82% 0.00 in 0 W/m2
23:00 19.5 °F 14.9 °F 29.98 in Calm     82% 0.00 in 0 W/m2
23:05 19.3 °F 14.7 °F 29.98 in Calm   1 mph 82% 0.00 in 0 W/m2
23:10 19.1 °F 14.8 °F 29.99 in Calm     83% 0.00 in 0 W/m2
23:15 19.1 °F 14.8 °F 29.99 in Calm     83% 0.00 in 0 W/m2
23:20 19 °F 14.7 °F 29.99 in Calm     83% 0.00 in 0 W/m2
23:25 18.9 °F 14.6 °F 29.99 in Calm     83% 0.00 in 0 W/m2
23:30 18.9 °F 14.6 °F 30.00 in Calm   2 mph 83% 0.00 in 0 W/m2
23:35 19 °F 14.7 °F 30.00 in South 1 mph 2 mph 83% 0.00 in 0 W/m2
23:40 19.3 °F 15 °F 30.01 in South 2 mph 2 mph 83% 0.00 in 0 W/m2
23:45 19.8 °F 15.2 °F 30.01 in South 2 mph 2 mph 82% 0.00 in 0 W/m2
23:50 20.2 °F 15.6 °F 30.01 in South 2 mph 2 mph 82% 0.00 in 0 W/m2
23:55 20 °F 15.1 °F 30.01 in South 2 mph 2 mph 81% 0.00 in 0 W/m2
Sand Point, Michigan, USA
Compliments of Weather Underground - 2 mb